sensor_id;sensor_type;location;lat;lon;timestamp;temperature;humidity
45715;DHT22;31430;61.646;24.704;2023-03-01T00:01:53;-4.80;99.90
45715;DHT22;31430;61.646;24.704;2023-03-01T00:04:18;-4.80;99.90
45715;DHT22;31430;61.646;24.704;2023-03-01T00:06:44;-4.90;99.90
45715;DHT22;31430;61.646;24.704;2023-03-01T00:09:12;-4.90;99.90
45715;DHT22;31430;61.646;24.704;2023-03-01T00:11:38;-5.10;99.90
45715;DHT22;31430;61.646;24.704;2023-03-01T00:14:04;-5.10;99.90
45715;DHT22;31430;61.646;24.704;2023-03-01T00:16:37;-5.20;99.90
45715;DHT22;31430;61.646;24.704;2023-03-01T00:19:07;-5.10;99.90
45715;DHT22;31430;61.646;24.704;2023-03-01T00:21:33;-5.20;99.90
45715;DHT22;31430;61.646;24.704;2023-03-01T00:24:00;-5.10;99.90
45715;DHT22;31430;61.646;24.704;2023-03-01T00:26:26;-5.20;99.90
45715;DHT22;31430;61.646;24.704;2023-03-01T00:28:52;-5.10;99.90
45715;DHT22;31430;61.646;24.704;2023-03-01T00:31:21;-5.30;99.90
45715;DHT22;31430;61.646;24.704;2023-03-01T00:33:47;-5.40;99.90
45715;DHT22;31430;61.646;24.704;2023-03-01T00:36:14;-5.40;99.90
45715;DHT22;31430;61.646;24.704;2023-03-01T00:38:42;-5.60;99.90
45715;DHT22;31430;61.646;24.704;2023-03-01T00:41:14;-5.70;99.90
45715;DHT22;31430;61.646;24.704;2023-03-01T00:43:40;-5.60;99.90
45715;DHT22;31430;61.646;24.704;2023-03-01T00:46:14;-5.60;99.90
45715;DHT22;31430;61.646;24.704;2023-03-01T00:48:40;-5.50;99.90
45715;DHT22;31430;61.646;24.704;2023-03-01T00:51:08;-5.60;99.90
45715;DHT22;31430;61.646;24.704;2023-03-01T00:53:35;-5.40;99.90
45715;DHT22;31430;61.646;24.704;2023-03-01T00:56:01;-5.80;99.90
45715;DHT22;31430;61.646;24.704;2023-03-01T00:58:27;-5.90;99.90
45715;DHT22;31430;61.646;24.704;2023-03-01T01:00:53;-5.90;99.90
45715;DHT22;31430;61.646;24.704;2023-03-01T01:03:19;-6.00;99.90
45715;DHT22;31430;61.646;24.704;2023-03-01T01:05:44;-5.80;99.90
45715;DHT22;31430;61.646;24.704;2023-03-01T01:08:10;-5.50;99.90
45715;DHT22;31430;61.646;24.704;2023-03-01T01:10:36;-5.30;99.90
45715;DHT22;31430;61.646;24.704;2023-03-01T01:13:02;-5.20;99.90
45715;DHT22;31430;61.646;24.704;2023-03-01T01:15:28;-5.10;99.90
45715;DHT22;31430;61.646;24.704;2023-03-01T01:17:54;-4.90;99.90
45715;DHT22;31430;61.646;24.704;2023-03-01T01:20:20;-4.90;99.90
45715;DHT22;31430;61.646;24.704;2023-03-01T01:22:46;-4.90;99.90
45715;DHT22;31430;61.646;24.704;2023-03-01T01:25:12;-4.80;99.90
45715;DHT22;31430;61.646;24.704;2023-03-01T01:27:37;-4.70;99.90
45715;DHT22;31430;61.646;24.704;2023-03-01T01:30:04;-4.80;99.90
45715;DHT22;31430;61.646;24.704;2023-03-01T01:32:30;-4.80;99.90
45715;DHT22;31430;61.646;24.704;2023-03-01T01:34:56;-4.70;99.90
45715;DHT22;31430;61.646;24.704;2023-03-01T01:37:21;-4.70;99.90
45715;DHT22;31430;61.646;24.704;2023-03-01T01:39:47;-4.70;99.90
45715;DHT22;31430;61.646;24.704;2023-03-01T01:42:16;-4.80;99.90
45715;DHT22;31430;61.646;24.704;2023-03-01T01:44:44;-4.80;99.90
45715;DHT22;31430;61.646;24.704;2023-03-01T01:47:16;-4.80;99.90
45715;DHT22;31430;61.646;24.704;2023-03-01T01:49:55;-4.90;99.90
45715;DHT22;31430;61.646;24.704;2023-03-01T01:52:27;-4.90;99.90
45715;DHT22;31430;61.646;24.704;2023-03-01T01:55:03;-4.90;99.90
45715;DHT22;31430;61.646;24.704;2023-03-01T01:57:41;-5.00;99.90
45715;DHT22;31430;61.646;24.704;2023-03-01T02:00:12;-5.10;99.90
45715;DHT22;31430;61.646;24.704;2023-03-01T02:02:38;-5.10;99.90
45715;DHT22;31430;61.646;24.704;2023-03-01T02:05:15;-5.10;99.90
45715;DHT22;31430;61.646;24.704;2023-03-01T02:07:43;-5.00;99.90
45715;DHT22;31430;61.646;24.704;2023-03-01T02:10:10;-5.20;99.90
45715;DHT22;31430;61.646;24.704;2023-03-01T02:12:36;-5.30;99.90
45715;DHT22;31430;61.646;24.704;2023-03-01T02:15:04;-5.40;99.90
45715;DHT22;31430;61.646;24.704;2023-03-01T02:17:31;-5.50;99.90
45715;DHT22;31430;61.646;24.704;2023-03-01T02:20:23;-5.70;99.90
45715;DHT22;31430;61.646;24.704;2023-03-01T02:22:52;-5.50;99.90
45715;DHT22;31430;61.646;24.704;2023-03-01T02:25:51;-5.50;99.90
45715;DHT22;31430;61.646;24.704;2023-03-01T02:30:56;-5.60;99.90
45715;DHT22;31430;61.646;24.704;2023-03-01T02:33:41;-5.50;99.90
45715;DHT22;31430;61.646;24.704;2023-03-01T02:36:28;-5.50;99.90
45715;DHT22;31430;61.646;24.704;2023-03-01T02:38:58;-5.60;99.90
45715;DHT22;31430;61.646;24.704;2023-03-01T02:41:26;-5.70;99.90
45715;DHT22;31430;61.646;24.704;2023-03-01T02:43:53;-5.60;99.90
45715;DHT22;31430;61.646;24.704;2023-03-01T02:46:25;-5.80;99.90
45715;DHT22;31430;61.646;24.704;2023-03-01T02:48:53;-5.50;99.90
45715;DHT22;31430;61.646;24.704;2023-03-01T02:51:42;-5.40;99.90
45715;DHT22;31430;61.646;24.704;2023-03-01T02:56:55;-5.40;99.90
45715;DHT22;31430;61.646;24.704;2023-03-01T02:59:24;-5.30;99.90
45715;DHT22;31430;61.646;24.704;2023-03-01T03:01:52;-5.40;99.90
45715;DHT22;31430;61.646;24.704;2023-03-01T03:04:19;-5.40;99.90
45715;DHT22;31430;61.646;24.704;2023-03-01T03:06:47;-5.40;99.90
45715;DHT22;31430;61.646;24.704;2023-03-01T03:09:14;-5.60;99.90
45715;DHT22;31430;61.646;24.704;2023-03-01T03:11:41;-5.60;99.90
45715;DHT22;31430;61.646;24.704;2023-03-01T03:14:12;-5.50;99.90
45715;DHT22;31430;61.646;24.704;2023-03-01T03:16:48;-5.50;99.90
45715;DHT22;31430;61.646;24.704;2023-03-01T03:19:15;-5.30;99.90
45715;DHT22;31430;61.646;24.704;2023-03-01T03:21:42;-5.20;99.90
45715;DHT22;31430;61.646;24.704;2023-03-01T03:24:08;-5.10;99.90
45715;DHT22;31430;61.646;24.704;2023-03-01T03:26:33;-5.00;99.90
45715;DHT22;31430;61.646;24.704;2023-03-01T03:28:59;-4.90;99.90
45715;DHT22;31430;61.646;24.704;2023-03-01T03:31:25;-4.90;99.90
45715;DHT22;31430;61.646;24.704;2023-03-01T03:33:51;-4.80;99.90
45715;DHT22;31430;61.646;24.704;2023-03-01T03:36:19;-4.70;99.90
45715;DHT22;31430;61.646;24.704;2023-03-01T03:38:45;-4.50;99.90
45715;DHT22;31430;61.646;24.704;2023-03-01T03:41:12;-4.50;99.90
45715;DHT22;31430;61.646;24.704;2023-03-01T03:43:39;-4.40;99.90
45715;DHT22;31430;61.646;24.704;2023-03-01T03:46:05;-4.40;99.90
45715;DHT22;31430;61.646;24.704;2023-03-01T03:48:36;-4.50;99.90
45715;DHT22;31430;61.646;24.704;2023-03-01T03:51:03;-4.40;99.90
45715;DHT22;31430;61.646;24.704;2023-03-01T03:53:31;-4.40;99.90
45715;DHT22;31430;61.646;24.704;2023-03-01T03:55:57;-4.20;99.90
45715;DHT22;31430;61.646;24.704;2023-03-01T03:58:24;-4.10;99.90
45715;DHT22;31430;61.646;24.704;2023-03-01T04:00:55;-4.10;99.90
45715;DHT22;31430;61.646;24.704;2023-03-01T04:03:23;-4.10;99.90
45715;DHT22;31430;61.646;24.704;2023-03-01T04:05:50;-4.00;99.90
45715;DHT22;31430;61.646;24.704;2023-03-01T04:08:18;-3.90;99.90
45715;DHT22;31430;61.646;24.704;2023-03-01T04:10:47;-3.70;99.90
45715;DHT22;31430;61.646;24.704;2023-03-01T04:13:17;-3.60;99.90
45715;DHT22;31430;61.646;24.704;2023-03-01T04:15:45;-3.60;99.90
45715;DHT22;31430;61.646;24.704;2023-03-01T04:18:15;-3.50;99.90
45715;DHT22;31430;61.646;24.704;2023-03-01T04:20:41;-3.40;99.90
45715;DHT22;31430;61.646;24.704;2023-03-01T04:23:10;-3.30;99.90
45715;DHT22;31430;61.646;24.704;2023-03-01T04:25:58;-3.30;99.90
45715;DHT22;31430;61.646;24.704;2023-03-01T04:28:30;-3.30;99.90
45715;DHT22;31430;61.646;24.704;2023-03-01T04:30:57;-3.30;99.90
45715;DHT22;31430;61.646;24.704;2023-03-01T04:33:24;-3.30;99.90
45715;DHT22;31430;61.646;24.704;2023-03-01T04:35:51;-3.20;99.90
45715;DHT22;31430;61.646;24.704;2023-03-01T04:38:17;-3.20;99.90
45715;DHT22;31430;61.646;24.704;2023-03-01T04:40:43;-3.10;99.90
45715;DHT22;31430;61.646;24.704;2023-03-01T04:43:11;-3.10;99.90
45715;DHT22;31430;61.646;24.704;2023-03-01T04:45:38;-3.00;99.90
45715;DHT22;31430;61.646;24.704;2023-03-01T04:48:04;-3.00;99.90
45715;DHT22;31430;61.646;24.704;2023-03-01T04:50:30;-2.90;99.90
45715;DHT22;31430;61.646;24.704;2023-03-01T04:52:56;-2.90;99.90
45715;DHT22;31430;61.646;24.704;2023-03-01T04:55:28;-2.90;99.90
45715;DHT22;31430;61.646;24.704;2023-03-01T04:57:54;-2.90;99.90
45715;DHT22;31430;61.646;24.704;2023-03-01T05:00:21;-2.80;99.90
45715;DHT22;31430;61.646;24.704;2023-03-01T05:05:14;-2.70;99.90
45715;DHT22;31430;61.646;24.704;2023-03-01T05:07:40;-2.70;99.90
45715;DHT22;31430;61.646;24.704;2023-03-01T05:10:05;-2.60;99.90
45715;DHT22;31430;61.646;24.704;2023-03-01T05:12:31;-2.60;99.90
45715;DHT22;31430;61.646;24.704;2023-03-01T05:14:57;-2.50;99.90
45715;DHT22;31430;61.646;24.704;2023-03-01T05:17:23;-2.50;99.90
45715;DHT22;31430;61.646;24.704;2023-03-01T05:19:49;-2.50;99.90
45715;DHT22;31430;61.646;24.704;2023-03-01T05:22:15;-2.40;99.90
45715;DHT22;31430;61.646;24.704;2023-03-01T05:24:41;-2.30;99.90
45715;DHT22;31430;61.646;24.704;2023-03-01T05:27:07;-2.30;99.90
45715;DHT22;31430;61.646;24.704;2023-03-01T05:29:33;-2.30;99.90
45715;DHT22;31430;61.646;24.704;2023-03-01T05:32:01;-2.30;99.90
45715;DHT22;31430;61.646;24.704;2023-03-01T05:34:31;-2.20;99.90
45715;DHT22;31430;61.646;24.704;2023-03-01T05:36:57;-2.20;99.90
45715;DHT22;31430;61.646;24.704;2023-03-01T05:39:23;-2.10;99.90
45715;DHT22;31430;61.646;24.704;2023-03-01T05:41:56;-2.10;99.90
45715;DHT22;31430;61.646;24.704;2023-03-01T05:44:23;-2.10;99.90
45715;DHT22;31430;61.646;24.704;2023-03-01T05:46:49;-2.20;99.90
45715;DHT22;31430;61.646;24.704;2023-03-01T05:49:14;-2.10;99.90
45715;DHT22;31430;61.646;24.704;2023-03-01T05:51:41;-2.00;99.90
45715;DHT22;31430;61.646;24.704;2023-03-01T05:54:07;-1.90;99.90
45715;DHT22;31430;61.646;24.704;2023-03-01T05:56:34;-2.00;99.90
45715;DHT22;31430;61.646;24.704;2023-03-01T05:59:01;-1.90;99.90
45715;DHT22;31430;61.646;24.704;2023-03-01T06:01:27;-1.90;99.90
45715;DHT22;31430;61.646;24.704;2023-03-01T06:03:52;-1.80;99.90
45715;DHT22;31430;61.646;24.704;2023-03-01T06:06:18;-1.80;99.90
45715;DHT22;31430;61.646;24.704;2023-03-01T06:08:44;-1.80;99.90
45715;DHT22;31430;61.646;24.704;2023-03-01T06:11:10;-1.70;99.90
45715;DHT22;31430;61.646;24.704;2023-03-01T06:13:35;-1.60;99.90
45715;DHT22;31430;61.646;24.704;2023-03-01T06:16:05;-1.60;99.90
45715;DHT22;31430;61.646;24.704;2023-03-01T06:18:31;-1.60;99.90
45715;DHT22;31430;61.646;24.704;2023-03-01T06:20:56;-1.60;99.90
45715;DHT22;31430;61.646;24.704;2023-03-01T06:23:23;-1.60;99.90
45715;DHT22;31430;61.646;24.704;2023-03-01T06:25:49;-1.50;99.90
45715;DHT22;31430;61.646;24.704;2023-03-01T06:28:14;-1.50;99.90
45715;DHT22;31430;61.646;24.704;2023-03-01T06:30:40;-1.40;99.90
45715;DHT22;31430;61.646;24.704;2023-03-01T06:33:05;-1.50;99.90
45715;DHT22;31430;61.646;24.704;2023-03-01T06:35:31;-1.50;99.90
45715;DHT22;31430;61.646;24.704;2023-03-01T06:37:59;-1.40;99.90
45715;DHT22;31430;61.646;24.704;2023-03-01T06:40:25;-1.30;99.90
45715;DHT22;31430;61.646;24.704;2023-03-01T06:42:51;-1.30;99.90
45715;DHT22;31430;61.646;24.704;2023-03-01T06:45:18;-1.20;99.90
45715;DHT22;31430;61.646;24.704;2023-03-01T06:47:43;-1.20;99.90
45715;DHT22;31430;61.646;24.704;2023-03-01T06:50:09;-1.10;99.90
45715;DHT22;31430;61.646;24.704;2023-03-01T06:52:36;-1.10;99.90
45715;DHT22;31430;61.646;24.704;2023-03-01T06:55:01;-1.10;99.90
45715;DHT22;31430;61.646;24.704;2023-03-01T06:57:27;-0.90;99.90
45715;DHT22;31430;61.646;24.704;2023-03-01T06:59:53;-0.80;99.90
45715;DHT22;31430;61.646;24.704;2023-03-01T07:02:19;-0.80;99.90
45715;DHT22;31430;61.646;24.704;2023-03-01T07:04:45;-0.70;99.90
45715;DHT22;31430;61.646;24.704;2023-03-01T07:07:10;-0.70;99.90
45715;DHT22;31430;61.646;24.704;2023-03-01T07:09:36;-0.70;99.90
45715;DHT22;31430;61.646;24.704;2023-03-01T07:12:02;-0.60;99.90
45715;DHT22;31430;61.646;24.704;2023-03-01T07:14:28;-0.70;99.90
45715;DHT22;31430;61.646;24.704;2023-03-01T07:16:53;-0.60;99.90
45715;DHT22;31430;61.646;24.704;2023-03-01T07:19:20;-0.60;99.90
45715;DHT22;31430;61.646;24.704;2023-03-01T07:21:46;-0.60;99.90
45715;DHT22;31430;61.646;24.704;2023-03-01T07:24:11;-0.60;99.90
45715;DHT22;31430;61.646;24.704;2023-03-01T07:26:37;-0.60;99.90
45715;DHT22;31430;61.646;24.704;2023-03-01T07:29:05;-0.60;99.90
45715;DHT22;31430;61.646;24.704;2023-03-01T07:31:31;-0.60;99.90
45715;DHT22;31430;61.646;24.704;2023-03-01T07:33:57;-0.50;99.90
45715;DHT22;31430;61.646;24.704;2023-03-01T07:36:23;-0.50;99.90
45715;DHT22;31430;61.646;24.704;2023-03-01T07:38:50;-0.40;99.90
45715;DHT22;31430;61.646;24.704;2023-03-01T07:41:16;-0.40;99.90
45715;DHT22;31430;61.646;24.704;2023-03-01T07:43:41;-0.30;99.90
45715;DHT22;31430;61.646;24.704;2023-03-01T07:46:08;-0.20;99.90
45715;DHT22;31430;61.646;24.704;2023-03-01T07:48:34;-0.20;99.90
45715;DHT22;31430;61.646;24.704;2023-03-01T07:51:00;-0.20;99.90
45715;DHT22;31430;61.646;24.704;2023-03-01T07:53:27;-0.10;99.90
45715;DHT22;31430;61.646;24.704;2023-03-01T07:56:12;-0.20;99.90
45715;DHT22;31430;61.646;24.704;2023-03-01T07:58:41;-0.10;99.90
45715;DHT22;31430;61.646;24.704;2023-03-01T08:01:09;-0.10;99.90
45715;DHT22;31430;61.646;24.704;2023-03-01T08:03:36;-0.10;99.90
45715;DHT22;31430;61.646;24.704;2023-03-01T08:06:06;-0.20;99.90
45715;DHT22;31430;61.646;24.704;2023-03-01T08:08:32;-0.20;99.90
45715;DHT22;31430;61.646;24.704;2023-03-01T08:10:58;-0.20;99.90
45715;DHT22;31430;61.646;24.704;2023-03-01T08:13:24;-0.10;99.90
45715;DHT22;31430;61.646;24.704;2023-03-01T08:15:49;-0.20;99.90
45715;DHT22;31430;61.646;24.704;2023-03-01T08:18:16;-0.10;99.90
45715;DHT22;31430;61.646;24.704;2023-03-01T08:20:42;-0.10;99.90
45715;DHT22;31430;61.646;24.704;2023-03-01T08:23:07;0.00;99.90
45715;DHT22;31430;61.646;24.704;2023-03-01T08:25:33;0.10;99.90
45715;DHT22;31430;61.646;24.704;2023-03-01T08:27:59;0.30;99.90
45715;DHT22;31430;61.646;24.704;2023-03-01T08:30:25;0.50;99.90
45715;DHT22;31430;61.646;24.704;2023-03-01T08:32:51;0.50;99.90
45715;DHT22;31430;61.646;24.704;2023-03-01T08:35:17;0.70;99.90
45715;DHT22;31430;61.646;24.704;2023-03-01T08:37:43;0.70;99.90
45715;DHT22;31430;61.646;24.704;2023-03-01T08:40:08;0.70;99.90
45715;DHT22;31430;61.646;24.704;2023-03-01T08:42:36;0.90;99.90
45715;DHT22;31430;61.646;24.704;2023-03-01T08:45:06;0.90;99.90
45715;DHT22;31430;61.646;24.704;2023-03-01T08:47:31;1.00;99.90
45715;DHT22;31430;61.646;24.704;2023-03-01T08:50:02;1.10;99.90
45715;DHT22;31430;61.646;24.704;2023-03-01T08:52:28;1.20;99.90
45715;DHT22;31430;61.646;24.704;2023-03-01T08:54:55;1.30;99.90
45715;DHT22;31430;61.646;24.704;2023-03-01T08:57:21;1.50;99.90
45715;DHT22;31430;61.646;24.704;2023-03-01T08:59:47;1.50;99.90
45715;DHT22;31430;61.646;24.704;2023-03-01T09:02:14;1.50;99.90
45715;DHT22;31430;61.646;24.704;2023-03-01T09:04:40;1.60;99.90
45715;DHT22;31430;61.646;24.704;2023-03-01T09:07:06;1.60;99.90
45715;DHT22;31430;61.646;24.704;2023-03-01T09:09:32;1.70;99.90
45715;DHT22;31430;61.646;24.704;2023-03-01T09:11:58;1.70;99.90
45715;DHT22;31430;61.646;24.704;2023-03-01T09:14:23;1.90;99.90
45715;DHT22;31430;61.646;24.704;2023-03-01T09:16:50;2.00;99.90
45715;DHT22;31430;61.646;24.704;2023-03-01T09:19:16;2.00;99.90
45715;DHT22;31430;61.646;24.704;2023-03-01T09:21:41;2.00;99.90
45715;DHT22;31430;61.646;24.704;2023-03-01T09:24:17;2.10;99.90
45715;DHT22;31430;61.646;24.704;2023-03-01T09:26:43;2.10;99.90
45715;DHT22;31430;61.646;24.704;2023-03-01T09:29:11;2.20;99.90
45715;DHT22;31430;61.646;24.704;2023-03-01T09:31:37;2.30;99.90
45715;DHT22;31430;61.646;24.704;2023-03-01T09:34:03;2.50;99.90
45715;DHT22;31430;61.646;24.704;2023-03-01T09:36:28;2.40;99.90
45715;DHT22;31430;61.646;24.704;2023-03-01T09:38:54;2.50;99.90
45715;DHT22;31430;61.646;24.704;2023-03-01T09:41:42;2.40;99.90
45715;DHT22;31430;61.646;24.704;2023-03-01T09:46:44;2.40;99.90
45715;DHT22;31430;61.646;24.704;2023-03-01T09:49:17;2.40;99.90
45715;DHT22;31430;61.646;24.704;2023-03-01T09:51:58;2.40;99.90
45715;DHT22;31430;61.646;24.704;2023-03-01T09:54:25;2.50;99.90
45715;DHT22;31430;61.646;24.704;2023-03-01T09:56:57;2.50;99.90
45715;DHT22;31430;61.646;24.704;2023-03-01T09:59:40;2.50;99.90
45715;DHT22;31430;61.646;24.704;2023-03-01T10:05:28;2.60;99.90
45715;DHT22;31430;61.646;24.704;2023-03-01T10:10:52;2.60;99.90
45715;DHT22;31430;61.646;24.704;2023-03-01T10:13:45;2.70;99.90
45715;DHT22;31430;61.646;24.704;2023-03-01T10:16:23;2.70;99.90
45715;DHT22;31430;61.646;24.704;2023-03-01T10:19:02;2.70;99.90
45715;DHT22;31430;61.646;24.704;2023-03-01T10:21:29;2.60;99.90
45715;DHT22;31430;61.646;24.704;2023-03-01T10:24:07;2.60;99.90
45715;DHT22;31430;61.646;24.704;2023-03-01T10:29:21;2.70;99.90
45715;DHT22;31430;61.646;24.704;2023-03-01T10:31:50;2.60;99.90
45715;DHT22;31430;61.646;24.704;2023-03-01T10:34:34;2.70;99.90
45715;DHT22;31430;61.646;24.704;2023-03-01T10:37:15;2.80;99.90
45715;DHT22;31430;61.646;24.704;2023-03-01T10:40:07;2.70;99.90
45715;DHT22;31430;61.646;24.704;2023-03-01T10:42:46;2.80;99.90
45715;DHT22;31430;61.646;24.704;2023-03-01T10:48:18;2.90;99.90
45715;DHT22;31430;61.646;24.704;2023-03-01T10:50:50;2.90;99.90
45715;DHT22;31430;61.646;24.704;2023-03-01T10:56:00;2.90;99.90
45715;DHT22;31430;61.646;24.704;2023-03-01T10:58:26;3.00;99.90
45715;DHT22;31430;61.646;24.704;2023-03-01T11:00:55;3.00;99.90
45715;DHT22;31430;61.646;24.704;2023-03-01T11:06:43;3.10;99.90
45715;DHT22;31430;61.646;24.704;2023-03-01T11:08:45;3.20;99.90
45715;DHT22;31430;61.646;24.704;2023-03-01T11:13:37;3.30;99.90
45715;DHT22;31430;61.646;24.704;2023-03-01T11:16:10;3.40;99.90
45715;DHT22;31430;61.646;24.704;2023-03-01T11:18:37;3.60;99.90
45715;DHT22;31430;61.646;24.704;2023-03-01T11:21:03;3.60;99.90
45715;DHT22;31430;61.646;24.704;2023-03-01T11:23:30;3.40;99.90
45715;DHT22;31430;61.646;24.704;2023-03-01T11:26:05;3.40;99.90
45715;DHT22;31430;61.646;24.704;2023-03-01T11:28:34;3.60;99.90
45715;DHT22;31430;61.646;24.704;2023-03-01T11:31:08;3.70;99.90
45715;DHT22;31430;61.646;24.704;2023-03-01T11:33:53;3.50;99.90
45715;DHT22;31430;61.646;24.704;2023-03-01T11:37:03;3.60;99.90
45715;DHT22;31430;61.646;24.704;2023-03-01T11:45:12;3.80;99.90
45715;DHT22;31430;61.646;24.704;2023-03-01T11:47:45;3.60;99.90
45715;DHT22;31430;61.646;24.704;2023-03-01T11:50:27;3.70;99.90
45715;DHT22;31430;61.646;24.704;2023-03-01T11:55:57;3.60;99.90
45715;DHT22;31430;61.646;24.704;2023-03-01T11:58:56;3.60;99.90
45715;DHT22;31430;61.646;24.704;2023-03-01T12:09:50;3.70;99.90
45715;DHT22;31430;61.646;24.704;2023-03-01T12:35:21;4.10;99.90
45715;DHT22;31430;61.646;24.704;2023-03-01T12:38:23;4.00;99.90
45715;DHT22;31430;61.646;24.704;2023-03-01T12:49:17;4.00;99.90
45715;DHT22;31430;61.646;24.704;2023-03-01T12:51:54;4.10;99.10
45715;DHT22;31430;61.646;24.704;2023-03-01T12:54:27;4.20;98.90
45715;DHT22;31430;61.646;24.704;2023-03-01T12:56:55;4.30;98.20
45715;DHT22;31430;61.646;24.704;2023-03-01T12:59:41;4.20;98.70
45715;DHT22;31430;61.646;24.704;2023-03-01T13:05:16;4.10;99.40
45715;DHT22;31430;61.646;24.704;2023-03-01T13:15:44;4.60;94.90
45715;DHT22;31430;61.646;24.704;2023-03-01T13:28:52;4.40;96.20
45715;DHT22;31430;61.646;24.704;2023-03-01T13:33:58;4.40;95.30
45715;DHT22;31430;61.646;24.704;2023-03-01T13:41:54;4.50;96.00
45715;DHT22;31430;61.646;24.704;2023-03-01T13:50:02;4.70;96.80
45715;DHT22;31430;61.646;24.704;2023-03-01T13:52:44;4.70;95.80
45715;DHT22;31430;61.646;24.704;2023-03-01T13:57:39;4.50;97.60
45715;DHT22;31430;61.646;24.704;2023-03-01T14:00:06;4.50;97.50
45715;DHT22;31430;61.646;24.704;2023-03-01T14:02:32;4.50;98.20
45715;DHT22;31430;61.646;24.704;2023-03-01T14:05:01;4.30;99.90
45715;DHT22;31430;61.646;24.704;2023-03-01T14:07:27;4.30;99.60
45715;DHT22;31430;61.646;24.704;2023-03-01T14:09:59;4.30;99.90
45715;DHT22;31430;61.646;24.704;2023-03-01T14:12:46;4.40;99.30
45715;DHT22;31430;61.646;24.704;2023-03-01T14:15:33;4.30;99.90
45715;DHT22;31430;61.646;24.704;2023-03-01T14:20:37;4.30;99.90
45715;DHT22;31430;61.646;24.704;2023-03-01T14:23:11;4.10;99.90
45715;DHT22;31430;61.646;24.704;2023-03-01T14:25:39;4.20;99.90
45715;DHT22;31430;61.646;24.704;2023-03-01T14:28:27;4.20;99.90
45715;DHT22;31430;61.646;24.704;2023-03-01T14:30:56;4.10;99.90
45715;DHT22;31430;61.646;24.704;2023-03-01T14:35:54;4.10;99.90
45715;DHT22;31430;61.646;24.704;2023-03-01T14:38:29;4.10;99.90
45715;DHT22;31430;61.646;24.704;2023-03-01T14:40:59;4.00;99.90
45715;DHT22;31430;61.646;24.704;2023-03-01T14:43:27;3.90;99.90
45715;DHT22;31430;61.646;24.704;2023-03-01T14:45:54;4.00;99.90
45715;DHT22;31430;61.646;24.704;2023-03-01T14:48:20;4.00;99.90
45715;DHT22;31430;61.646;24.704;2023-03-01T14:50:46;3.90;99.90
45715;DHT22;31430;61.646;24.704;2023-03-01T14:53:24;3.90;99.90
45715;DHT22;31430;61.646;24.704;2023-03-01T14:55:53;3.90;99.90
45715;DHT22;31430;61.646;24.704;2023-03-01T14:58:22;4.00;99.90
45715;DHT22;31430;61.646;24.704;2023-03-01T15:00:57;3.90;99.90
45715;DHT22;31430;61.646;24.704;2023-03-01T15:06:00;3.90;99.90
45715;DHT22;31430;61.646;24.704;2023-03-01T15:08:27;3.90;99.90
45715;DHT22;31430;61.646;24.704;2023-03-01T15:13:39;3.90;99.90
45715;DHT22;31430;61.646;24.704;2023-03-01T15:16:13;3.80;99.90
45715;DHT22;31430;61.646;24.704;2023-03-01T15:18:51;3.90;99.90
45715;DHT22;31430;61.646;24.704;2023-03-01T15:21:20;3.90;99.90
45715;DHT22;31430;61.646;24.704;2023-03-01T15:23:54;3.80;99.90
45715;DHT22;31430;61.646;24.704;2023-03-01T15:26:32;3.80;99.90
45715;DHT22;31430;61.646;24.704;2023-03-01T15:29:00;3.90;99.90
45715;DHT22;31430;61.646;24.704;2023-03-01T15:31:27;3.80;99.90
45715;DHT22;31430;61.646;24.704;2023-03-01T15:34:08;3.70;99.90
45715;DHT22;31430;61.646;24.704;2023-03-01T15:36:45;3.70;99.90
45715;DHT22;31430;61.646;24.704;2023-03-01T15:41:59;3.60;99.90
45715;DHT22;31430;61.646;24.704;2023-03-01T15:44:26;3.60;99.90
45715;DHT22;31430;61.646;24.704;2023-03-01T15:46:52;3.60;99.90
45715;DHT22;31430;61.646;24.704;2023-03-01T15:52:03;3.50;99.90
45715;DHT22;31430;61.646;24.704;2023-03-01T15:54:29;3.50;99.90
45715;DHT22;31430;61.646;24.704;2023-03-01T15:56:55;3.40;99.90
45715;DHT22;31430;61.646;24.704;2023-03-01T15:59:21;3.30;99.90
45715;DHT22;31430;61.646;24.704;2023-03-01T16:01:48;3.30;99.90
45715;DHT22;31430;61.646;24.704;2023-03-01T16:04:15;3.20;99.90
45715;DHT22;31430;61.646;24.704;2023-03-01T16:06:53;3.20;99.90
45715;DHT22;31430;61.646;24.704;2023-03-01T16:09:23;3.10;99.90
45715;DHT22;31430;61.646;24.704;2023-03-01T16:11:50;3.00;99.90
45715;DHT22;31430;61.646;24.704;2023-03-01T16:14:16;2.90;99.90
45715;DHT22;31430;61.646;24.704;2023-03-01T16:16:42;2.90;99.90
45715;DHT22;31430;61.646;24.704;2023-03-01T16:19:07;2.80;99.90
45715;DHT22;31430;61.646;24.704;2023-03-01T16:21:33;2.70;99.90
45715;DHT22;31430;61.646;24.704;2023-03-01T16:23:59;2.60;99.90
45715;DHT22;31430;61.646;24.704;2023-03-01T16:26:24;2.40;99.90
45715;DHT22;31430;61.646;24.704;2023-03-01T16:28:54;2.40;99.90
45715;DHT22;31430;61.646;24.704;2023-03-01T16:31:20;2.40;99.90
45715;DHT22;31430;61.646;24.704;2023-03-01T16:33:46;2.30;99.90
45715;DHT22;31430;61.646;24.704;2023-03-01T16:36:16;2.20;99.90
45715;DHT22;31430;61.646;24.704;2023-03-01T16:38:42;2.10;99.90
45715;DHT22;31430;61.646;24.704;2023-03-01T16:41:11;2.00;99.90
45715;DHT22;31430;61.646;24.704;2023-03-01T16:43:39;2.00;99.90
45715;DHT22;31430;61.646;24.704;2023-03-01T16:46:14;1.90;99.90
45715;DHT22;31430;61.646;24.704;2023-03-01T16:48:40;1.90;99.90
45715;DHT22;31430;61.646;24.704;2023-03-01T16:51:06;1.90;99.90
45715;DHT22;31430;61.646;24.704;2023-03-01T16:53:33;1.80;99.90
45715;DHT22;31430;61.646;24.704;2023-03-01T16:56:02;1.50;99.90
45715;DHT22;31430;61.646;24.704;2023-03-01T16:58:28;1.30;99.90
45715;DHT22;31430;61.646;24.704;2023-03-01T17:00:54;1.30;99.90
45715;DHT22;31430;61.646;24.704;2023-03-01T17:03:23;1.30;99.90
45715;DHT22;31430;61.646;24.704;2023-03-01T17:05:49;1.20;99.90
45715;DHT22;31430;61.646;24.704;2023-03-01T17:08:16;1.10;99.90
45715;DHT22;31430;61.646;24.704;2023-03-01T17:10:42;1.10;99.90
45715;DHT22;31430;61.646;24.704;2023-03-01T17:13:11;1.10;99.90
45715;DHT22;31430;61.646;24.704;2023-03-01T17:15:40;1.00;99.90
45715;DHT22;31430;61.646;24.704;2023-03-01T17:18:07;0.90;99.90
45715;DHT22;31430;61.646;24.704;2023-03-01T17:20:33;0.80;99.90
45715;DHT22;31430;61.646;24.704;2023-03-01T17:22:59;0.70;99.90
45715;DHT22;31430;61.646;24.704;2023-03-01T17:25:25;0.60;99.90
45715;DHT22;31430;61.646;24.704;2023-03-01T17:27:50;0.60;99.90
45715;DHT22;31430;61.646;24.704;2023-03-01T17:30:16;0.60;99.90
45715;DHT22;31430;61.646;24.704;2023-03-01T17:32:42;0.50;99.90
45715;DHT22;31430;61.646;24.704;2023-03-01T17:35:08;0.40;99.90
45715;DHT22;31430;61.646;24.704;2023-03-01T17:37:36;0.30;99.90
45715;DHT22;31430;61.646;24.704;2023-03-01T17:40:05;0.20;99.90
45715;DHT22;31430;61.646;24.704;2023-03-01T17:42:32;0.10;99.90
45715;DHT22;31430;61.646;24.704;2023-03-01T17:44:57;0.00;99.90
45715;DHT22;31430;61.646;24.704;2023-03-01T17:47:24;0.00;99.90